Time,TemperatureF,DewpointF,PressureIn,WindDirection,WindDirectionDegrees,WindSpeedMPH,WindSpeedGustMPH,Humidity,HourlyPrecipIn,Conditions,Clouds,dailyrainin,SoftwareType,DateUTC
2013-08-02 00:01:00,59.2,47.0,0.00,South,190,0.0,2.2,64,0.00,,,0.00,VWS V13.01,2013-08-02 05:01:00,
2013-08-02 00:06:00,59.2,47.4,0.00,South,190,0.0,0.0,65,0.00,,,0.00,VWS V13.01,2013-08-02 05:06:00,
2013-08-02 00:11:00,59.4,48.0,0.00,South,190,0.0,0.0,66,0.00,,,0.00,VWS V13.01,2013-08-02 05:11:00,
2013-08-02 00:16:00,59.2,47.8,0.00,South,190,0.0,0.0,66,0.00,,,0.00,VWS V13.01,2013-08-02 05:16:00,
2013-08-02 00:21:00,59.2,47.8,0.00,South,190,0.0,0.0,66,0.00,,,0.00,VWS V13.01,2013-08-02 05:21:00,
2013-08-02 00:26:00,59.2,47.8,0.00,South,190,0.0,0.0,66,0.00,,,0.00,VWS V13.01,2013-08-02 05:26:00,
2013-08-02 00:31:00,59.2,48.2,0.00,South,190,0.0,0.0,67,0.00,,,0.00,VWS V13.01,2013-08-02 05:31:00,
2013-08-02 00:36:00,59.0,48.1,0.00,South,190,0.0,0.0,67,0.00,,,0.00,VWS V13.01,2013-08-02 05:36:00,
2013-08-02 00:41:00,58.8,47.9,0.00,South,191,0.0,0.0,67,0.00,,,0.00,VWS V13.01,2013-08-02 05:41:00,
2013-08-02 00:45:00,58.6,48.1,0.00,South,191,0.0,0.0,68,0.00,,,0.00,VWS V13.01,2013-08-02 05:45:00,
2013-08-02 00:51:00,58.5,48.0,0.00,South,191,0.0,0.0,68,0.00,,,0.00,VWS V13.01,2013-08-02 05:51:00,
2013-08-02 00:56:00,58.1,47.6,0.00,SSW,192,0.0,0.0,68,0.00,,,0.00,VWS V13.01,2013-08-02 05:56:00,
2013-08-02 01:01:00,57.9,47.4,0.00,SSW,192,0.0,0.0,68,0.00,,,0.00,VWS V13.01,2013-08-02 06:01:00,
2013-08-02 01:06:00,57.9,47.8,0.00,NW,316,3.6,5.8,69,0.00,,,0.00,VWS V13.01,2013-08-02 06:06:00,
2013-08-02 01:11:00,58.5,49.1,0.00,NNE,28,0.0,0.0,71,0.00,,,0.00,VWS V13.01,2013-08-02 06:11:00,
2013-08-02 01:16:00,59.2,49.8,0.00,ESE,115,0.0,0.0,71,0.00,,,0.00,VWS V13.01,2013-08-02 06:16:00,
2013-08-02 01:21:00,59.5,50.1,0.00,NNW,333,0.0,2.7,71,0.00,,,0.00,VWS V13.01,2013-08-02 06:21:00,
2013-08-02 01:26:00,59.7,50.3,0.00,NNW,333,0.0,0.0,71,0.00,,,0.00,VWS V13.01,2013-08-02 06:26:00,
2013-08-02 01:31:00,59.7,50.3,0.00,NNW,333,0.0,0.0,71,0.00,,,0.00,VWS V13.01,2013-08-02 06:31:00,
2013-08-02 01:36:00,59.5,50.1,0.00,NNW,329,0.0,0.0,71,0.00,,,0.00,VWS V13.01,2013-08-02 06:36:00,
2013-08-02 01:41:00,59.4,49.6,0.00,NNW,329,0.0,0.0,70,0.00,,,0.00,VWS V13.01,2013-08-02 06:41:00,
2013-08-02 01:46:00,59.4,49.6,0.00,NNW,329,0.0,0.0,70,0.00,,,0.00,VWS V13.01,2013-08-02 06:46:00,
2013-08-02 01:51:00,59.5,50.1,0.00,East,90,0.0,0.0,71,0.00,,,0.00,VWS V13.01,2013-08-02 06:51:00,
2013-08-02 01:56:00,59.7,50.3,0.00,SSE,168,0.0,0.0,71,0.00,,,0.00,VWS V13.01,2013-08-02 06:56:00,
2013-08-02 02:01:00,59.7,49.9,0.00,NNW,337,0.0,0.0,70,0.00,,,0.00,VWS V13.01,2013-08-02 07:01:00,
2013-08-02 02:06:00,59.0,48.9,0.00,NNW,337,0.0,0.0,69,0.00,,,0.00,VWS V13.01,2013-08-02 07:06:00,
2013-08-02 02:11:00,58.5,48.7,0.00,NNW,337,0.0,0.0,70,0.00,,,0.00,VWS V13.01,2013-08-02 07:11:00,
2013-08-02 02:16:00,57.9,47.8,0.00,NNW,337,0.0,0.0,69,0.00,,,0.00,VWS V13.01,2013-08-02 07:16:00,
2013-08-02 02:21:00,57.6,47.5,0.00,NNW,337,0.0,0.0,69,0.00,,,0.00,VWS V13.01,2013-08-02 07:21:00,
2013-08-02 02:26:00,57.2,47.5,0.00,NNW,337,0.0,0.0,70,0.00,,,0.00,VWS V13.01,2013-08-02 07:26:00,
2013-08-02 02:31:00,56.8,47.2,0.00,NNW,337,0.0,0.0,70,0.00,,,0.00,VWS V13.01,2013-08-02 07:31:00,
2013-08-02 02:36:00,56.7,47.4,0.00,NNW,337,0.0,0.0,71,0.00,,,0.00,VWS V13.01,2013-08-02 07:36:00,
2013-08-02 02:41:00,56.7,47.4,0.00,NNW,337,0.0,0.0,71,0.00,,,0.00,VWS V13.01,2013-08-02 07:41:00,
2013-08-02 02:46:00,56.7,47.4,0.00,NNW,337,0.0,0.0,71,0.00,,,0.00,VWS V13.01,2013-08-02 07:46:00,
2013-08-02 02:51:00,56.5,47.2,0.00,NNW,337,0.0,0.0,71,0.00,,,0.00,VWS V13.01,2013-08-02 07:51:00,
2013-08-02 02:56:00,55.9,46.7,0.00,NNW,337,0.0,0.0,71,0.00,,,0.00,VWS V13.01,2013-08-02 07:56:00,
2013-08-02 03:01:00,55.8,46.5,0.00,NNW,337,0.0,0.0,71,0.00,,,0.00,VWS V13.01,2013-08-02 08:01:00,
2013-08-02 03:06:00,55.6,46.3,0.00,NNW,337,0.0,0.0,71,0.00,,,0.00,VWS V13.01,2013-08-02 08:06:00,
2013-08-02 03:11:00,55.8,46.9,0.00,NNW,337,0.0,0.0,72,0.00,,,0.00,VWS V13.01,2013-08-02 08:11:00,
2013-08-02 03:16:00,55.4,46.5,0.00,NNW,337,0.0,0.0,72,0.00,,,0.00,VWS V13.01,2013-08-02 08:16:00,
2013-08-02 03:21:00,55.2,46.7,0.00,NNW,337,0.0,0.0,73,0.00,,,0.00,VWS V13.01,2013-08-02 08:21:00,
2013-08-02 03:26:00,55.2,46.7,0.00,NNW,337,0.0,0.0,73,0.00,,,0.00,VWS V13.01,2013-08-02 08:26:00,
2013-08-02 03:31:00,55.0,46.5,0.00,NNW,337,0.0,0.0,73,0.00,,,0.00,VWS V13.01,2013-08-02 08:31:00,
2013-08-02 03:36:00,55.2,46.7,0.00,NNW,337,0.0,0.0,73,0.00,,,0.00,VWS V13.01,2013-08-02 08:36:00,
2013-08-02 03:41:00,55.2,46.7,0.00,NNW,337,0.0,0.0,73,0.00,,,0.00,VWS V13.01,2013-08-02 08:41:00,
2013-08-02 03:46:00,55.0,46.5,0.00,NNW,337,0.0,0.0,73,0.00,,,0.00,VWS V13.01,2013-08-02 08:46:00,
2013-08-02 03:51:00,55.0,46.9,0.00,NNW,337,0.0,0.0,74,0.00,,,0.00,VWS V13.01,2013-08-02 08:51:00,
2013-08-02 03:56:00,54.9,46.7,0.00,NNW,337,0.0,0.0,74,0.00,,,0.00,VWS V13.01,2013-08-02 08:56:00,
2013-08-02 04:01:00,54.7,46.6,0.00,NNW,337,0.0,0.0,74,0.00,,,0.00,VWS V13.01,2013-08-02 09:01:00,
2013-08-02 04:06:00,54.7,46.6,0.00,NNW,337,0.0,0.0,74,0.00,,,0.00,VWS V13.01,2013-08-02 09:06:00,
2013-08-02 04:11:00,54.9,46.7,0.00,NNW,337,0.0,0.0,74,0.00,,,0.00,VWS V13.01,2013-08-02 09:11:00,
2013-08-02 04:16:00,55.4,47.6,0.00,NNW,337,0.0,0.0,75,0.00,,,0.00,VWS V13.01,2013-08-02 09:16:00,
2013-08-02 04:21:00,55.0,46.9,0.00,NNW,337,0.0,2.2,74,0.00,,,0.00,VWS V13.01,2013-08-02 09:21:00,
2013-08-02 04:26:00,55.0,47.3,0.00,NNW,330,3.6,5.8,75,0.00,,,0.00,VWS V13.01,2013-08-02 09:26:00,
2013-08-02 04:31:00,55.4,47.6,0.00,North,353,2.2,3.1,75,0.00,,,0.00,VWS V13.01,2013-08-02 09:31:00,
2013-08-02 04:36:00,55.4,47.6,0.00,North,353,0.0,0.0,75,0.00,,,0.00,VWS V13.01,2013-08-02 09:36:00,
2013-08-02 04:41:00,55.2,47.5,0.00,North,353,0.0,0.0,75,0.00,,,0.00,VWS V13.01,2013-08-02 09:41:00,
2013-08-02 04:46:00,55.0,47.3,0.00,North,353,0.0,0.0,75,0.00,,,0.00,VWS V13.01,2013-08-02 09:46:00,
2013-08-02 04:51:00,54.9,47.1,0.00,NNW,328,0.0,0.0,75,0.00,,,0.00,VWS V13.01,2013-08-02 09:51:00,
2013-08-02 04:56:00,54.9,47.1,0.00,NNW,328,0.0,0.0,75,0.00,,,0.00,VWS V13.01,2013-08-02 09:56:00,
2013-08-02 05:01:00,54.7,46.9,0.00,NNW,328,0.0,0.0,75,0.00,,,0.00,VWS V13.01,2013-08-02 10:01:00,
2013-08-02 05:06:00,54.3,46.6,0.00,NNW,328,0.0,0.0,75,0.00,,,0.00,VWS V13.01,2013-08-02 10:06:00,
2013-08-02 05:11:00,53.6,45.9,0.00,NNW,328,0.0,0.0,75,0.00,,,0.00,VWS V13.01,2013-08-02 10:11:00,
2013-08-02 05:16:00,53.4,45.7,0.00,NNW,328,0.0,0.0,75,0.00,,,0.00,VWS V13.01,2013-08-02 10:16:00,
2013-08-02 05:21:00,53.2,45.9,0.00,NNW,328,0.0,0.0,76,0.00,,,0.00,VWS V13.01,2013-08-02 10:21:00,
2013-08-02 05:26:00,53.1,45.7,0.00,NNW,335,2.7,3.1,76,0.00,,,0.00,VWS V13.01,2013-08-02 10:26:00,
2013-08-02 05:31:00,53.8,46.8,0.00,NNW,335,0.0,0.0,77,0.00,,,0.00,VWS V13.01,2013-08-02 10:31:00,
2013-08-02 05:36:00,53.6,46.2,0.00,NNW,335,0.0,0.0,76,0.00,,,0.00,VWS V13.01,2013-08-02 10:36:00,
2013-08-02 05:41:00,53.2,45.9,0.00,NNW,335,2.7,2.7,76,0.00,,,0.00,VWS V13.01,2013-08-02 10:41:00,
2013-08-02 05:46:00,52.9,45.5,0.00,NNW,335,0.0,2.2,76,0.00,,,0.00,VWS V13.01,2013-08-02 10:46:00,
2013-08-02 05:51:00,52.7,45.4,0.00,NNW,335,2.2,2.2,76,0.00,,,0.00,VWS V13.01,2013-08-02 10:51:00,
2013-08-02 05:56:00,52.5,45.2,0.00,NNW,335,2.2,2.2,76,0.00,,,0.00,VWS V13.01,2013-08-02 10:56:00,
2013-08-02 06:01:00,52.3,45.0,0.00,NNW,335,0.0,0.0,76,0.00,,,0.00,VWS V13.01,2013-08-02 11:01:00,
2013-08-02 06:06:00,53.1,46.4,0.00,NNW,335,0.0,0.0,78,0.00,,,0.00,VWS V13.01,2013-08-02 11:06:00,
2013-08-02 06:11:00,53.2,46.6,0.00,NNW,335,0.0,0.0,78,0.00,,,0.00,VWS V13.01,2013-08-02 11:11:00,
2013-08-02 06:16:00,53.1,46.0,0.00,NNW,335,0.0,0.0,77,0.00,,,0.00,VWS V13.01,2013-08-02 11:16:00,
2013-08-02 06:21:00,52.9,45.5,0.00,NNW,335,0.0,0.0,76,0.00,,,0.00,VWS V13.01,2013-08-02 11:21:00,
2013-08-02 06:26:00,52.7,45.4,0.00,NNW,335,0.0,0.0,76,0.00,,,0.00,VWS V13.01,2013-08-02 11:26:00,
2013-08-02 06:31:00,52.7,45.4,0.00,NNW,335,0.0,0.0,76,0.00,,,0.00,VWS V13.01,2013-08-02 11:31:00,
2013-08-02 06:36:00,52.7,45.7,0.00,NNW,335,0.0,0.0,77,0.00,,,0.00,VWS V13.01,2013-08-02 11:36:00,
2013-08-02 06:41:00,53.1,46.0,0.00,NNW,335,0.0,0.0,77,0.00,,,0.00,VWS V13.01,2013-08-02 11:41:00,
2013-08-02 06:46:00,53.1,46.0,0.00,NNW,335,0.0,0.0,77,0.00,,,0.00,VWS V13.01,2013-08-02 11:46:00,
2013-08-02 06:51:00,53.1,46.0,0.00,NNW,335,0.0,0.0,77,0.00,,,0.00,VWS V13.01,2013-08-02 11:51:00,
2013-08-02 06:56:00,53.6,46.9,0.00,NNW,335,0.0,0.0,78,0.00,,,0.00,VWS V13.01,2013-08-02 11:56:00,
2013-08-02 07:01:00,54.1,47.4,0.00,NNW,335,0.0,0.0,78,0.00,,,0.00,VWS V13.01,2013-08-02 12:01:00,
2013-08-02 07:06:00,54.3,47.6,0.00,NNW,335,0.0,0.0,78,0.00,,,0.00,VWS V13.01,2013-08-02 12:06:00,
2013-08-02 07:11:00,54.7,48.0,0.00,NNW,335,0.0,0.0,78,0.00,,,0.00,VWS V13.01,2013-08-02 12:11:00,
2013-08-02 07:16:00,55.2,48.8,0.00,NNW,335,0.0,0.0,79,0.00,,,0.00,VWS V13.01,2013-08-02 12:16:00,
2013-08-02 07:21:00,55.8,49.4,0.00,NNW,335,0.0,0.0,79,0.00,,,0.00,VWS V13.01,2013-08-02 12:21:00,
2013-08-02 07:26:00,56.7,50.2,0.00,NNW,335,0.0,0.0,79,0.00,,,0.00,VWS V13.01,2013-08-02 12:26:00,
2013-08-02 07:31:00,57.2,50.8,0.00,NNW,335,0.0,0.0,79,0.00,,,0.00,VWS V13.01,2013-08-02 12:31:00,
2013-08-02 07:36:00,57.7,51.3,0.00,NNW,335,0.0,0.0,79,0.00,,,0.00,VWS V13.01,2013-08-02 12:36:00,
2013-08-02 07:41:00,58.1,51.6,0.00,NNW,335,0.0,0.0,79,0.00,,,0.00,VWS V13.01,2013-08-02 12:41:00,
2013-08-02 07:46:00,58.3,51.8,0.00,North,357,0.0,2.2,79,0.00,,,0.00,VWS V13.01,2013-08-02 12:46:00,
2013-08-02 07:51:00,58.8,52.7,0.00,North,357,0.0,0.0,80,0.00,,,0.00,VWS V13.01,2013-08-02 12:51:00,
2013-08-02 07:56:00,59.7,53.5,0.00,North,353,0.0,2.2,80,0.00,,,0.00,VWS V13.01,2013-08-02 12:56:00,
2013-08-02 08:01:00,60.4,54.2,0.00,NW,325,0.0,0.0,80,0.00,,,0.00,VWS V13.01,2013-08-02 13:01:00,
2013-08-02 08:06:00,61.2,55.0,0.00,North,8,4.0,4.0,80,0.00,,,0.00,VWS V13.01,2013-08-02 13:06:00,
2013-08-02 08:11:00,61.7,55.5,0.00,NNW,328,2.7,3.6,80,0.00,,,0.00,VWS V13.01,2013-08-02 13:11:00,
2013-08-02 08:16:00,61.9,55.7,0.00,North,9,3.6,4.0,80,0.00,,,0.00,VWS V13.01,2013-08-02 13:16:00,
2013-08-02 08:21:00,62.4,55.5,0.00,NNW,331,2.2,3.1,78,0.00,,,0.00,VWS V13.01,2013-08-02 13:21:00,
2013-08-02 08:26:00,62.8,54.4,0.00,North,350,2.7,2.7,74,0.00,,,0.00,VWS V13.01,2013-08-02 13:26:00,
2013-08-02 08:31:00,63.3,53.4,0.00,NW,326,2.7,2.7,70,0.00,,,0.00,VWS V13.01,2013-08-02 13:31:00,
2013-08-02 08:36:00,63.9,51.9,0.00,NW,326,0.0,0.0,65,0.00,,,0.00,VWS V13.01,2013-08-02 13:36:00,
2013-08-02 08:41:00,64.6,50.4,0.00,NW,326,2.7,2.7,60,0.00,,,0.00,VWS V13.01,2013-08-02 13:41:00,
2013-08-02 08:46:00,65.1,48.6,0.00,NNW,337,0.0,0.0,55,0.00,,,0.00,VWS V13.01,2013-08-02 13:46:00,
2013-08-02 08:52:00,65.7,44.9,0.00,WNW,288,4.9,4.9,47,0.00,,,0.00,VWS V13.01,2013-08-02 13:52:00,
2013-08-02 08:57:00,66.0,45.2,0.00,NNW,328,4.0,4.0,47,0.00,,,0.00,VWS V13.01,2013-08-02 13:57:00,
2013-08-02 09:02:00,66.2,43.7,0.00,NNW,342,3.6,4.0,44,0.00,,,0.00,VWS V13.01,2013-08-02 14:02:00,
2013-08-02 09:07:00,66.6,44.6,0.00,North,353,4.0,4.0,45,0.00,,,0.00,VWS V13.01,2013-08-02 14:07:00,
2013-08-02 09:12:00,66.7,43.5,0.00,NNW,345,3.6,3.6,43,0.00,,,0.00,VWS V13.01,2013-08-02 14:12:00,
2013-08-02 09:17:00,66.9,43.7,0.00,North,2,3.6,3.6,43,0.00,,,0.00,VWS V13.01,2013-08-02 14:17:00,
2013-08-02 09:22:00,67.1,42.0,0.00,WNW,297,3.1,3.1,40,0.00,,,0.00,VWS V13.01,2013-08-02 14:22:00,
2013-08-02 09:27:00,67.5,43.0,0.00,NNW,335,0.0,0.0,41,0.00,,,0.00,VWS V13.01,2013-08-02 14:27:00,
2013-08-02 09:32:00,67.8,42.6,0.00,NNW,344,2.7,2.7,40,0.00,,,0.00,VWS V13.01,2013-08-02 14:32:00,
2013-08-02 09:37:00,68.0,40.8,0.00,North,3,4.0,4.9,37,0.00,,,0.00,VWS V13.01,2013-08-02 14:37:00,
2013-08-02 09:42:00,68.0,40.8,0.00,NW,317,3.1,4.0,37,0.00,,,0.00,VWS V13.01,2013-08-02 14:42:00,
2013-08-02 09:47:00,68.2,39.5,0.00,NW,326,4.0,4.0,35,0.00,,,0.00,VWS V13.01,2013-08-02 14:47:00,
2013-08-02 09:52:00,68.4,38.2,0.00,NNE,24,5.8,5.8,33,0.00,,,0.00,VWS V13.01,2013-08-02 14:52:00,
2013-08-02 09:57:00,68.5,38.3,0.00,North,2,3.6,3.6,33,0.00,,,0.00,VWS V13.01,2013-08-02 14:57:00,
2013-08-02 10:02:00,68.7,38.5,0.00,North,0,3.1,3.1,33,0.00,,,0.00,VWS V13.01,2013-08-02 15:02:00,
2013-08-02 10:07:00,68.9,37.8,0.00,NNW,337,3.1,5.8,32,0.00,,,0.00,VWS V13.01,2013-08-02 15:07:00,
2013-08-02 10:12:00,68.9,37.8,0.00,NW,313,4.9,6.3,32,0.00,,,0.00,VWS V13.01,2013-08-02 15:12:00,
2013-08-02 10:17:00,68.9,37.8,0.00,NNW,345,4.9,4.9,32,0.00,,,0.00,VWS V13.01,2013-08-02 15:17:00,
2013-08-02 10:22:00,69.3,38.2,0.00,North,357,4.9,4.9,32,0.00,,,0.00,VWS V13.01,2013-08-02 15:22:00,
2013-08-02 10:27:00,69.3,37.4,0.00,ENE,61,2.7,4.0,31,0.00,,,0.00,VWS V13.01,2013-08-02 15:27:00,
2013-08-02 10:32:00,69.4,37.5,0.00,NNW,330,2.7,3.6,31,0.00,,,0.00,VWS V13.01,2013-08-02 15:32:00,
2013-08-02 10:37:00,69.6,37.7,0.00,North,353,2.7,3.1,31,0.00,,,0.00,VWS V13.01,2013-08-02 15:37:00,
2013-08-02 10:42:00,69.6,35.1,0.00,North,357,5.8,7.6,28,0.00,,,0.00,VWS V13.01,2013-08-02 15:42:00,
2013-08-02 10:47:00,69.6,36.0,0.00,NNW,341,4.0,6.3,29,0.00,,,0.00,VWS V13.01,2013-08-02 15:47:00,
2013-08-02 10:52:00,70.0,37.2,0.00,North,353,3.6,4.9,30,0.00,,,0.00,VWS V13.01,2013-08-02 15:52:00,
2013-08-02 10:57:00,70.2,34.7,0.00,NNW,344,3.6,8.1,27,0.00,,,0.00,VWS V13.01,2013-08-02 15:57:00,
2013-08-02 11:02:00,70.2,36.5,0.00,NW,317,3.1,5.4,29,0.00,,,0.00,VWS V13.01,2013-08-02 16:02:00,
2013-08-02 11:07:00,70.5,36.8,0.00,NNW,337,3.6,7.2,29,0.00,,,0.00,VWS V13.01,2013-08-02 16:07:00,
2013-08-02 11:12:00,70.5,35.0,0.00,NW,322,3.1,5.8,27,0.00,,,0.00,VWS V13.01,2013-08-02 16:12:00,
2013-08-02 11:17:00,70.7,36.0,0.00,NNW,333,3.1,5.8,28,0.00,,,0.00,VWS V13.01,2013-08-02 16:17:00,
2013-08-02 11:22:00,70.7,34.2,0.00,NNW,332,7.6,7.6,26,0.00,,,0.00,VWS V13.01,2013-08-02 16:22:00,
2013-08-02 11:27:00,70.9,36.2,0.00,North,353,0.0,0.0,28,0.00,,,0.00,VWS V13.01,2013-08-02 16:27:00,
2013-08-02 11:32:00,71.2,35.6,0.00,WNW,299,4.0,4.0,27,0.00,,,0.00,VWS V13.01,2013-08-02 16:32:00,
2013-08-02 11:37:00,71.4,35.7,0.00,WNW,290,2.7,3.6,27,0.00,,,0.00,VWS V13.01,2013-08-02 16:37:00,
2013-08-02 11:42:00,71.2,34.6,0.00,WNW,293,2.7,4.9,26,0.00,,,0.00,VWS V13.01,2013-08-02 16:42:00,
2013-08-02 11:47:00,71.2,34.6,0.00,NW,325,2.7,5.4,26,0.00,,,0.00,VWS V13.01,2013-08-02 16:47:00,
2013-08-02 11:52:00,70.9,35.3,0.00,NW,318,3.1,4.9,27,0.00,,,0.00,VWS V13.01,2013-08-02 16:52:00,
2013-08-02 11:57:00,70.9,34.3,0.00,NW,310,3.1,8.7,26,0.00,,,0.00,VWS V13.01,2013-08-02 16:57:00,
2013-08-02 12:02:00,71.2,33.6,0.00,North,350,2.7,4.9,25,0.00,,,0.00,VWS V13.01,2013-08-02 17:02:00,
2013-08-02 12:07:00,71.4,32.8,0.00,NW,310,3.1,5.4,24,0.00,,,0.00,VWS V13.01,2013-08-02 17:07:00,
2013-08-02 12:12:00,71.6,32.9,0.00,NNW,337,5.4,5.8,24,0.00,,,0.00,VWS V13.01,2013-08-02 17:12:00,
2013-08-02 12:17:00,71.6,32.9,0.00,North,0,2.7,7.6,24,0.00,,,0.00,VWS V13.01,2013-08-02 17:17:00,
2013-08-02 12:22:00,71.8,33.1,0.00,North,349,5.4,5.4,24,0.00,,,0.00,VWS V13.01,2013-08-02 17:22:00,
2013-08-02 12:27:00,71.6,32.9,0.00,North,0,7.6,7.6,24,0.00,,,0.00,VWS V13.01,2013-08-02 17:27:00,
2013-08-02 12:32:00,71.2,32.6,0.00,North,10,4.0,4.0,24,0.00,,,0.00,VWS V13.01,2013-08-02 17:32:00,
2013-08-02 12:37:00,71.2,32.6,0.00,NW,307,3.6,4.0,24,0.00,,,0.00,VWS V13.01,2013-08-02 17:37:00,
2013-08-02 12:42:00,71.6,32.9,0.00,WNW,297,3.1,4.0,24,0.00,,,0.00,VWS V13.01,2013-08-02 17:42:00,
2013-08-02 12:43:00,71.6,32.9,0.00,North,357,3.1,3.1,24,0.00,,,0.00,VWS V13.01,2013-08-02 17:43:00,
2013-08-02 12:48:00,71.8,34.1,0.00,NNW,335,3.6,4.0,25,0.00,,,0.00,VWS V13.01,2013-08-02 17:48:00,
2013-08-02 12:53:00,71.8,33.1,0.00,NW,320,2.7,4.0,24,0.00,,,0.00,VWS V13.01,2013-08-02 17:53:00,
2013-08-02 12:58:00,71.6,32.9,0.00,NW,305,3.1,5.4,24,0.00,,,0.00,VWS V13.01,2013-08-02 17:58:00,
2013-08-02 13:03:00,71.6,32.9,0.00,NW,323,3.6,3.6,24,0.00,,,0.00,VWS V13.01,2013-08-02 18:03:00,
2013-08-02 13:08:00,71.4,32.8,0.00,North,353,3.6,4.9,24,0.00,,,0.00,VWS V13.01,2013-08-02 18:08:00,
2013-08-02 13:13:00,71.4,32.8,0.00,NW,312,2.7,2.7,24,0.00,,,0.00,VWS V13.01,2013-08-02 18:13:00,
2013-08-02 13:18:00,71.2,33.6,0.00,North,357,3.1,3.6,25,0.00,,,0.00,VWS V13.01,2013-08-02 18:18:00,
2013-08-02 13:23:00,71.1,32.5,0.00,NNW,332,2.2,3.6,24,0.00,,,0.00,VWS V13.01,2013-08-02 18:23:00,
2013-08-02 13:28:00,70.9,32.3,0.00,North,353,3.1,3.1,24,0.00,,,0.00,VWS V13.01,2013-08-02 18:28:00,
2013-08-02 13:33:00,70.7,32.2,0.00,NW,310,2.7,4.9,24,0.00,,,0.00,VWS V13.01,2013-08-02 18:33:00,
2013-08-02 13:38:00,70.9,33.3,0.00,NNW,344,2.2,2.7,25,0.00,,,0.00,VWS V13.01,2013-08-02 18:38:00,
2013-08-02 13:43:00,71.2,33.6,0.00,NNW,327,0.0,5.4,25,0.00,,,0.00,VWS V13.01,2013-08-02 18:43:00,
2013-08-02 13:48:00,71.8,34.1,0.00,NNW,329,3.6,3.6,25,0.00,,,0.00,VWS V13.01,2013-08-02 18:48:00,
2013-08-02 13:53:00,72.3,33.5,0.00,North,3,5.4,5.4,24,0.00,,,0.00,VWS V13.01,2013-08-02 18:53:00,
2013-08-02 13:58:00,72.7,33.8,0.00,WNW,282,3.1,3.6,24,0.00,,,0.00,VWS V13.01,2013-08-02 18:58:00,
2013-08-02 14:03:00,73.0,33.1,0.00,NNW,332,4.0,4.0,23,0.00,,,0.00,VWS V13.01,2013-08-02 19:03:00,
2013-08-02 14:08:00,73.4,33.4,0.00,WNW,296,0.0,3.1,23,0.00,,,0.00,VWS V13.01,2013-08-02 19:08:00,
2013-08-02 14:13:00,73.4,32.3,0.00,North,353,4.0,5.8,22,0.00,,,0.00,VWS V13.01,2013-08-02 19:13:00,
2013-08-02 14:18:00,72.7,32.8,0.00,NW,323,3.6,5.4,23,0.00,,,0.00,VWS V13.01,2013-08-02 19:18:00,
2013-08-02 14:23:00,72.1,32.3,0.00,West,281,2.2,3.6,23,0.00,,,0.00,VWS V13.01,2013-08-02 19:23:00,
2013-08-02 14:28:00,72.0,32.2,0.00,NW,312,5.4,5.4,23,0.00,,,0.00,VWS V13.01,2013-08-02 19:28:00,
2013-08-02 14:33:00,72.0,32.2,0.00,NW,304,3.1,5.4,23,0.00,,,0.00,VWS V13.01,2013-08-02 19:33:00,
2013-08-02 14:38:00,72.5,32.6,0.00,WNW,286,0.0,2.2,23,0.00,,,0.00,VWS V13.01,2013-08-02 19:38:00,
2013-08-02 14:43:00,72.5,32.6,0.00,NW,319,2.7,5.4,23,0.00,,,0.00,VWS V13.01,2013-08-02 19:43:00,
2013-08-02 14:48:00,72.5,32.6,0.00,NW,314,3.1,6.3,23,0.00,,,0.00,VWS V13.01,2013-08-02 19:48:00,
2013-08-02 14:53:00,72.5,31.5,0.00,NW,310,5.8,5.8,22,0.00,,,0.00,VWS V13.01,2013-08-02 19:53:00,
2013-08-02 14:58:00,72.1,31.2,0.00,NNW,337,2.7,4.0,22,0.00,,,0.00,VWS V13.01,2013-08-02 19:58:00,
2013-08-02 15:03:00,72.0,31.1,0.00,North,4,3.6,4.9,22,0.00,,,0.00,VWS V13.01,2013-08-02 20:03:00,
2013-08-02 15:08:00,72.0,31.1,0.00,NNW,328,3.1,4.0,22,0.00,,,0.00,VWS V13.01,2013-08-02 20:08:00,
2013-08-02 15:13:00,71.6,30.8,0.00,WNW,287,0.0,0.0,22,0.00,,,0.00,VWS V13.01,2013-08-02 20:13:00,
2013-08-02 15:18:00,71.4,31.7,0.00,NW,324,3.1,4.0,23,0.00,,,0.00,VWS V13.01,2013-08-02 20:18:00,
2013-08-02 15:23:00,71.4,31.7,0.00,WNW,303,3.1,3.1,23,0.00,,,0.00,VWS V13.01,2013-08-02 20:23:00,
2013-08-02 15:28:00,71.6,31.9,0.00,NW,319,0.0,0.0,23,0.00,,,0.00,VWS V13.01,2013-08-02 20:28:00,
2013-08-02 15:33:00,72.1,32.3,0.00,NNW,335,0.0,4.0,23,0.00,,,0.00,VWS V13.01,2013-08-02 20:33:00,
2013-08-02 15:38:00,72.5,31.5,0.00,NNW,335,6.3,6.3,22,0.00,,,0.00,VWS V13.01,2013-08-02 20:38:00,
2013-08-02 15:43:00,72.7,31.7,0.00,NNW,339,2.7,5.4,22,0.00,,,0.00,VWS V13.01,2013-08-02 20:43:00,
2013-08-02 15:48:00,72.9,31.8,0.00,NW,305,3.6,6.3,22,0.00,,,0.00,VWS V13.01,2013-08-02 20:48:00,
2013-08-02 15:53:00,73.0,32.0,0.00,NW,318,2.7,5.4,22,0.00,,,0.00,VWS V13.01,2013-08-02 20:53:00,
2013-08-02 15:58:00,73.2,32.1,0.00,WSW,258,0.0,4.0,22,0.00,,,0.00,VWS V13.01,2013-08-02 20:58:00,
2013-08-02 16:03:00,73.4,32.3,0.00,North,353,3.1,5.4,22,0.00,,,0.00,VWS V13.01,2013-08-02 21:03:00,
2013-08-02 16:08:00,72.7,31.7,0.00,NNW,330,2.7,4.9,22,0.00,,,0.00,VWS V13.01,2013-08-02 21:08:00,
2013-08-02 16:13:00,72.5,31.5,0.00,NW,320,2.7,3.6,22,0.00,,,0.00,VWS V13.01,2013-08-02 21:13:00,
2013-08-02 16:18:00,72.3,31.4,0.00,NW,318,0.0,3.1,22,0.00,,,0.00,VWS V13.01,2013-08-02 21:18:00,
2013-08-02 16:23:00,72.5,31.5,0.00,NNW,333,3.6,6.3,22,0.00,,,0.00,VWS V13.01,2013-08-02 21:23:00,
2013-08-02 16:28:00,72.5,31.5,0.00,NW,319,4.0,4.0,22,0.00,,,0.00,VWS V13.01,2013-08-02 21:28:00,
2013-08-02 16:33:00,72.5,31.5,0.00,NW,323,5.4,5.4,22,0.00,,,0.00,VWS V13.01,2013-08-02 21:33:00,
2013-08-02 16:38:00,72.5,31.5,0.00,NNW,333,2.7,4.0,22,0.00,,,0.00,VWS V13.01,2013-08-02 21:38:00,
2013-08-02 16:43:00,72.7,31.7,0.00,WNW,303,2.7,4.0,22,0.00,,,0.00,VWS V13.01,2013-08-02 21:43:00,
2013-08-02 16:48:00,72.7,31.7,0.00,NNW,340,2.2,3.6,22,0.00,,,0.00,VWS V13.01,2013-08-02 21:48:00,
2013-08-02 16:53:00,72.5,31.5,0.00,NW,311,0.0,3.1,22,0.00,,,0.00,VWS V13.01,2013-08-02 21:53:00,
2013-08-02 16:58:00,72.3,31.4,0.00,NW,317,2.2,4.0,22,0.00,,,0.00,VWS V13.01,2013-08-02 21:58:00,
2013-08-02 17:03:00,72.1,31.2,0.00,NNW,329,2.2,3.6,22,0.00,,,0.00,VWS V13.01,2013-08-02 22:03:00,
2013-08-02 17:08:00,72.0,31.1,0.00,NNW,327,0.0,5.4,22,0.00,,,0.00,VWS V13.01,2013-08-02 22:08:00,
2013-08-02 17:13:00,71.8,30.9,0.00,NNW,332,2.7,3.1,22,0.00,,,0.00,VWS V13.01,2013-08-02 22:13:00,
2013-08-02 17:18:00,71.8,30.9,0.00,North,349,2.2,2.2,22,0.00,,,0.00,VWS V13.01,2013-08-02 22:18:00,
2013-08-02 17:23:00,71.6,30.8,0.00,NW,317,0.0,4.9,22,0.00,,,0.00,VWS V13.01,2013-08-02 22:23:00,
2013-08-02 17:28:00,71.6,30.8,0.00,NW,322,0.0,0.0,22,0.00,,,0.00,VWS V13.01,2013-08-02 22:28:00,
2013-08-02 17:33:00,71.4,31.7,0.00,NNW,330,3.1,4.0,23,0.00,,,0.00,VWS V13.01,2013-08-02 22:33:00,
2013-08-02 17:38:00,71.4,31.7,0.00,NNW,339,2.7,3.6,23,0.00,,,0.00,VWS V13.01,2013-08-02 22:38:00,
2013-08-02 17:43:00,71.4,31.7,0.00,NNW,327,0.0,3.1,23,0.00,,,0.00,VWS V13.01,2013-08-02 22:43:00,
2013-08-02 17:48:00,71.4,31.7,0.00,NW,318,2.2,3.6,23,0.00,,,0.00,VWS V13.01,2013-08-02 22:48:00,
2013-08-02 17:53:00,71.4,31.7,0.00,NNW,332,2.2,2.7,23,0.00,,,0.00,VWS V13.01,2013-08-02 22:53:00,
2013-08-02 17:58:00,71.4,32.8,0.00,NNW,340,0.0,0.0,24,0.00,,,0.00,VWS V13.01,2013-08-02 22:58:00,
2013-08-02 18:03:00,71.2,32.6,0.00,NW,306,2.2,2.7,24,0.00,,,0.00,VWS V13.01,2013-08-02 23:03:00,
2013-08-02 18:08:00,71.2,32.6,0.00,NW,312,0.0,0.0,24,0.00,,,0.00,VWS V13.01,2013-08-02 23:08:00,
2013-08-02 18:13:00,71.1,32.5,0.00,NW,317,2.2,2.7,24,0.00,,,0.00,VWS V13.01,2013-08-02 23:13:00,
2013-08-02 18:18:00,70.9,32.3,0.00,NNW,327,2.2,4.0,24,0.00,,,0.00,VWS V13.01,2013-08-02 23:18:00,
2013-08-02 18:23:00,70.7,32.2,0.00,NNW,343,0.0,0.0,24,0.00,,,0.00,VWS V13.01,2013-08-02 23:23:00,
2013-08-02 18:28:00,70.5,32.0,0.00,NNW,327,0.0,0.0,24,0.00,,,0.00,VWS V13.01,2013-08-02 23:28:00,
2013-08-02 18:33:00,70.5,32.0,0.00,NNW,328,0.0,0.0,24,0.00,,,0.00,VWS V13.01,2013-08-02 23:33:00,
2013-08-02 18:38:00,70.3,31.9,0.00,NW,317,0.0,0.0,24,0.00,,,0.00,VWS V13.01,2013-08-02 23:38:00,
2013-08-02 18:43:00,70.3,31.9,0.00,NW,317,0.0,0.0,24,0.00,,,0.00,VWS V13.01,2013-08-02 23:43:00,
2013-08-02 18:48:00,70.0,32.6,0.00,NW,317,0.0,0.0,25,0.00,,,0.00,VWS V13.01,2013-08-02 23:48:00,
2013-08-02 18:53:00,69.8,32.4,0.00,NW,317,0.0,0.0,25,0.00,,,0.00,VWS V13.01,2013-08-02 23:53:00,
2013-08-02 18:58:00,69.4,33.1,0.00,NW,317,0.0,0.0,26,0.00,,,0.00,VWS V13.01,2013-08-02 23:58:00,
2013-08-02 19:03:00,69.3,33.9,0.00,NW,320,0.0,0.0,27,0.00,,,0.00,VWS V13.01,2013-08-03 00:03:00,
2013-08-02 19:08:00,68.9,34.5,0.00,NW,320,0.0,0.0,28,0.00,,,0.00,VWS V13.01,2013-08-03 00:08:00,
2013-08-02 19:13:00,68.4,35.8,0.00,NW,320,0.0,0.0,30,0.00,,,0.00,VWS V13.01,2013-08-03 00:13:00,
2013-08-02 19:18:00,67.8,36.9,0.00,NW,320,0.0,0.0,32,0.00,,,0.00,VWS V13.01,2013-08-03 00:18:00,
2013-08-02 19:23:00,67.3,37.2,0.00,NW,320,0.0,0.0,33,0.00,,,0.00,VWS V13.01,2013-08-03 00:23:00,
2013-08-02 19:28:00,66.6,36.6,0.00,NW,321,0.0,0.0,33,0.00,,,0.00,VWS V13.01,2013-08-03 00:28:00,
2013-08-02 19:33:00,65.8,36.7,0.00,NW,322,0.0,0.0,34,0.00,,,0.00,VWS V13.01,2013-08-03 00:33:00,
2013-08-02 19:38:00,65.3,37.0,0.00,NW,323,0.0,0.0,35,0.00,,,0.00,VWS V13.01,2013-08-03 00:38:00,
2013-08-02 19:43:00,65.1,36.8,0.00,NW,323,0.0,0.0,35,0.00,,,0.00,VWS V13.01,2013-08-03 00:43:00,
2013-08-02 19:48:00,65.1,37.5,0.00,NW,323,0.0,0.0,36,0.00,,,0.00,VWS V13.01,2013-08-03 00:48:00,
2013-08-02 19:53:00,65.1,38.2,0.00,NW,324,0.0,0.0,37,0.00,,,0.00,VWS V13.01,2013-08-03 00:53:00,
2013-08-02 19:58:00,65.1,38.2,0.00,NW,324,0.0,0.0,37,0.00,,,0.00,VWS V13.01,2013-08-03 00:58:00,
2013-08-02 20:03:00,64.9,38.8,0.00,NW,326,0.0,0.0,38,0.00,,,0.00,VWS V13.01,2013-08-03 01:03:00,
2013-08-02 20:08:00,64.8,39.2,0.00,NW,326,0.0,0.0,39,0.00,,,0.00,VWS V13.01,2013-08-03 01:08:00,
2013-08-02 20:13:00,64.6,39.7,0.00,NW,326,0.0,0.0,40,0.00,,,0.00,VWS V13.01,2013-08-03 01:13:00,
2013-08-02 20:18:00,64.4,39.6,0.00,NW,325,0.0,0.0,40,0.00,,,0.00,VWS V13.01,2013-08-03 01:18:00,
2013-08-02 20:23:00,64.4,40.2,0.00,NW,326,0.0,0.0,41,0.00,,,0.00,VWS V13.01,2013-08-03 01:23:00,
2013-08-02 20:28:00,64.2,40.7,0.00,NW,326,0.0,0.0,42,0.00,,,0.00,VWS V13.01,2013-08-03 01:28:00,
2013-08-02 20:33:00,64.0,41.1,0.00,NW,326,0.0,0.0,43,0.00,,,0.00,VWS V13.01,2013-08-03 01:33:00,
2013-08-02 20:38:00,63.7,41.4,0.00,NNW,327,0.0,0.0,44,0.00,,,0.00,VWS V13.01,2013-08-03 01:38:00,
2013-08-02 20:43:00,63.3,41.1,0.00,NNW,327,0.0,0.0,44,0.00,,,0.00,VWS V13.01,2013-08-03 01:43:00,
2013-08-02 20:48:00,63.0,40.7,0.00,NNW,327,0.0,0.0,44,0.00,,,0.00,VWS V13.01,2013-08-03 01:48:00,
2013-08-02 20:53:00,62.4,40.8,0.00,NNW,327,0.0,0.0,45,0.00,,,0.00,VWS V13.01,2013-08-03 01:53:00,
2013-08-02 20:58:00,62.1,40.5,0.00,NNW,328,0.0,0.0,45,0.00,,,0.00,VWS V13.01,2013-08-03 01:58:00,
2013-08-02 21:03:00,61.7,40.2,0.00,NNW,333,0.0,0.0,45,0.00,,,0.00,VWS V13.01,2013-08-03 02:03:00,
2013-08-02 21:08:00,61.3,39.8,0.00,NNW,333,0.0,0.0,45,0.00,,,0.00,VWS V13.01,2013-08-03 02:08:00,
2013-08-02 21:13:00,61.2,39.7,0.00,NNW,332,0.0,0.0,45,0.00,,,0.00,VWS V13.01,2013-08-03 02:13:00,
2013-08-02 21:18:00,60.8,39.9,0.00,NNW,332,0.0,0.0,46,0.00,,,0.00,VWS V13.01,2013-08-03 02:18:00,
2013-08-02 21:23:00,60.4,40.1,0.00,NNW,332,0.0,0.0,47,0.00,,,0.00,VWS V13.01,2013-08-03 02:23:00,
2013-08-02 21:28:00,59.9,40.2,0.00,NNW,332,0.0,0.0,48,0.00,,,0.00,VWS V13.01,2013-08-03 02:28:00,
2013-08-02 21:33:00,59.5,40.4,0.00,NNW,332,0.0,0.0,49,0.00,,,0.00,VWS V13.01,2013-08-03 02:33:00,
2013-08-02 21:38:00,59.2,40.6,0.00,NNW,332,0.0,0.0,50,0.00,,,0.00,VWS V13.01,2013-08-03 02:38:00,
2013-08-02 21:43:00,58.8,40.8,0.00,NNW,332,0.0,0.0,51,0.00,,,0.00,VWS V13.01,2013-08-03 02:43:00,
2013-08-02 21:48:00,58.5,40.9,0.00,NNW,332,0.0,0.0,52,0.00,,,0.00,VWS V13.01,2013-08-03 02:48:00,
2013-08-02 21:53:00,58.3,41.2,0.00,NNW,331,0.0,0.0,53,0.00,,,0.00,VWS V13.01,2013-08-03 02:53:00,
2013-08-02 21:58:00,58.1,41.6,0.00,NNW,331,0.0,0.0,54,0.00,,,0.00,VWS V13.01,2013-08-03 02:58:00,
2013-08-02 22:03:00,57.9,41.4,0.00,NNW,331,0.0,0.0,54,0.00,,,0.00,VWS V13.01,2013-08-03 03:03:00,
2013-08-02 22:08:00,57.7,41.7,0.00,NNW,331,0.0,0.0,55,0.00,,,0.00,VWS V13.01,2013-08-03 03:08:00,
2013-08-02 22:13:00,57.6,42.0,0.00,NNW,331,0.0,0.0,56,0.00,,,0.00,VWS V13.01,2013-08-03 03:13:00,
2013-08-02 22:18:00,57.4,42.3,0.00,NNW,331,0.0,0.0,57,0.00,,,0.00,VWS V13.01,2013-08-03 03:18:00,
2013-08-02 22:23:00,57.4,42.7,0.00,NNW,331,0.0,0.0,58,0.00,,,0.00,VWS V13.01,2013-08-03 03:23:00,
2013-08-02 22:28:00,57.2,42.6,0.00,NNW,332,0.0,0.0,58,0.00,,,0.00,VWS V13.01,2013-08-03 03:28:00,
2013-08-02 22:33:00,56.8,42.7,0.00,NNW,332,0.0,0.0,59,0.00,,,0.00,VWS V13.01,2013-08-03 03:33:00,
2013-08-02 22:38:00,56.8,43.1,0.00,NNW,332,0.0,0.0,60,0.00,,,0.00,VWS V13.01,2013-08-03 03:38:00,
2013-08-02 22:43:00,56.7,43.4,0.00,NNW,332,0.0,0.0,61,0.00,,,0.00,VWS V13.01,2013-08-03 03:43:00,
2013-08-02 22:48:00,56.5,43.6,0.00,NNW,332,0.0,0.0,62,0.00,,,0.00,VWS V13.01,2013-08-03 03:48:00,
2013-08-02 22:53:00,56.1,43.3,0.00,NNW,332,0.0,0.0,62,0.00,,,0.00,VWS V13.01,2013-08-03 03:53:00,
2013-08-02 22:58:00,55.6,43.2,0.00,NNW,332,0.0,0.0,63,0.00,,,0.00,VWS V13.01,2013-08-03 03:58:00,
2013-08-02 23:01:00,55.4,43.0,0.00,NNW,332,0.0,0.0,63,0.00,,,0.00,VWS V13.01,2013-08-03 04:01:00,
2013-08-02 23:02:00,55.2,43.3,0.00,NNW,332,0.0,0.0,64,0.00,,,0.00,VWS V13.01,2013-08-03 04:02:00,
2013-08-02 23:07:00,55.0,43.1,0.00,NNW,332,0.0,0.0,64,0.00,,,0.00,VWS V13.01,2013-08-03 04:07:00,
2013-08-02 23:12:00,54.9,43.3,0.00,NNW,332,0.0,0.0,65,0.00,,,0.00,VWS V13.01,2013-08-03 04:12:00,
2013-08-02 23:17:00,54.7,43.6,0.00,NNW,332,0.0,0.0,66,0.00,,,0.00,VWS V13.01,2013-08-03 04:17:00,
2013-08-02 23:22:00,54.5,43.8,0.00,NNW,332,0.0,0.0,67,0.00,,,0.00,VWS V13.01,2013-08-03 04:22:00,
2013-08-02 23:27:00,54.5,43.8,0.00,NNW,332,0.0,0.0,67,0.00,,,0.00,VWS V13.01,2013-08-03 04:27:00,
2013-08-02 23:32:00,54.3,43.6,0.00,NNW,332,0.0,0.0,67,0.00,,,0.00,VWS V13.01,2013-08-03 04:32:00,
2013-08-02 23:37:00,54.3,44.0,0.00,NNW,332,0.0,0.0,68,0.00,,,0.00,VWS V13.01,2013-08-03 04:37:00,
2013-08-02 23:42:00,54.3,44.0,0.00,NNW,332,0.0,0.0,68,0.00,,,0.00,VWS V13.01,2013-08-03 04:42:00,
2013-08-02 23:47:00,54.3,44.4,0.00,NNW,332,0.0,0.0,69,0.00,,,0.00,VWS V13.01,2013-08-03 04:47:00,
2013-08-02 23:52:00,54.1,44.2,0.00,NNW,332,0.0,0.0,69,0.00,,,0.00,VWS V13.01,2013-08-03 04:52:00,
2013-08-02 23:57:00,54.0,44.0,0.00,NNW,332,0.0,0.0,69,0.00,,,0.00,VWS V13.01,2013-08-03 04:57:00,